Terminal Aerodrome Forecast
Issued by NWS Topeka, KS

Home | Current Version | Previous Version | Graphics & Text | Print | Product List | Glossary Off
Versions: 1 2 3 4 5 6 7 8 9 10 11 12 13 14 15 16 17 18 19 20

524
FTUS43 KTOP 161723
TAFTOP
TAF
KTOP 161723Z 1618/1718 21007KT P6SM SKC
     FM170600 19005KT P6SM FEW250 WS007/22035KT
     FM171400 20007KT P6SM SKC=

USA.gov is the U.S. government's official web portal to all federal, state and local government web resources and services.